Terminal Aerodrome Forecast
Issued by NWS Mt. Holly, NJ

Home | Current Version | Previous Version | Text Only | Print | Product List | Glossary On
Versions: 1 2 3 4 5 6 7 8 9 10 11 12 13 14 15 16 17 18 19 20
000
FTAK31 PANC 221141
TAFABE
TAF
PABE 221141Z 2212/2312 31007KT P6SM SKC
     FM221500 29006KT P6SM VCFG SCT008
     FM221800 28005KT P6SM SCT080
     FM222200 26010KT P6SM SKC=

USA.gov is the U.S. government's official web portal to all federal, state and local government web resources and services.